createdAt,value
2023-04-30T00:01:53.661Z,9.80
2023-04-30T00:07:09.706Z,9.90
2023-04-30T00:12:25.625Z,9.90
2023-04-30T00:17:41.400Z,10.00
2023-04-30T00:22:57.243Z,10.10
2023-04-30T00:28:13.244Z,10.20
2023-04-30T00:33:29.105Z,10.40
2023-04-30T00:38:44.966Z,10.40
2023-04-30T00:44:02.480Z,10.30
2023-04-30T00:49:18.305Z,10.30
2023-04-30T00:54:34.357Z,10.00
2023-04-30T00:59:51.787Z,9.80
2023-04-30T01:05:08.298Z,9.70
2023-04-30T01:10:32.520Z,9.70
2023-04-30T01:16:00.929Z,9.70
2023-04-30T01:21:22.503Z,9.90
2023-04-30T01:27:06.116Z,10.00
2023-04-30T01:32:21.741Z,10.10
2023-04-30T01:38:04.282Z,10.20
2023-04-30T01:43:27.876Z,10.10
2023-04-30T01:48:47.765Z,10.20
2023-04-30T01:54:10.769Z,10.10
2023-04-30T01:59:27.113Z,9.90
2023-04-30T02:04:43.109Z,10.00
2023-04-30T02:09:59.242Z,10.10
2023-04-30T02:15:15.449Z,10.20
2023-04-30T02:20:31.231Z,10.20
2023-04-30T02:25:47.117Z,10.20
2023-04-30T02:31:02.627Z,10.00
2023-04-30T02:36:18.492Z,10.10
2023-04-30T02:41:34.381Z,10.00
2023-04-30T02:46:50.266Z,9.90
2023-04-30T02:52:07.628Z,9.70
2023-04-30T02:57:23.711Z,9.70
2023-04-30T03:02:39.971Z,9.60
2023-04-30T03:07:56.176Z,9.50
2023-04-30T03:13:11.857Z,9.30
2023-04-30T03:18:29.499Z,9.20
2023-04-30T03:23:45.522Z,9.20
2023-04-30T03:29:02.324Z,9.20
2023-04-30T03:34:18.408Z,9.20
2023-04-30T03:39:34.631Z,9.20
2023-04-30T03:44:50.573Z,9.10
2023-04-30T03:50:07.563Z,9.10
2023-04-30T03:55:23.626Z,9.10
2023-04-30T04:00:42.169Z,9.20
2023-04-30T04:05:57.798Z,9.10
2023-04-30T04:11:13.782Z,9.10
2023-04-30T04:16:29.808Z,9.10
2023-04-30T04:21:45.825Z,9.10
2023-04-30T04:27:03.729Z,9.10
2023-04-30T04:32:19.176Z,9.20
2023-04-30T04:37:35.781Z,9.20
2023-04-30T04:42:54.131Z,9.30
2023-04-30T04:48:09.968Z,9.30
2023-04-30T04:53:25.784Z,9.40
2023-04-30T04:58:43.230Z,9.90
2023-04-30T05:03:59.126Z,10.50
2023-04-30T05:09:16.077Z,10.90
2023-04-30T05:14:31.673Z,11.10
2023-04-30T05:19:51.000Z,11.50
2023-04-30T05:25:07.464Z,11.60
2023-04-30T05:30:22.946Z,11.70
2023-04-30T05:35:38.773Z,11.80
2023-04-30T05:40:54.811Z,12.10
2023-04-30T05:46:10.835Z,12.40
2023-04-30T05:51:28.029Z,12.60
2023-04-30T05:56:43.516Z,12.70
2023-04-30T06:01:59.472Z,13.00
2023-04-30T06:07:15.363Z,14.50
2023-04-30T06:12:31.779Z,14.60
2023-04-30T06:17:47.692Z,14.50
2023-04-30T06:23:04.142Z,14.50
2023-04-30T06:28:19.661Z,15.70
2023-04-30T06:33:35.590Z,17.80
2023-04-30T06:38:51.380Z,19.50
2023-04-30T06:44:07.374Z,22.10
2023-04-30T06:49:23.181Z,21.90
2023-04-30T06:54:38.840Z,18.80
2023-04-30T06:59:55.474Z,17.40
2023-04-30T07:05:12.337Z,16.80
2023-04-30T07:10:28.261Z,16.80
2023-04-30T07:15:44.146Z,17.00
2023-04-30T07:20:59.796Z,16.60
2023-04-30T07:26:16.088Z,18.80
2023-04-30T07:31:31.523Z,19.90
2023-04-30T07:36:48.880Z,20.10
2023-04-30T07:42:04.879Z,20.70
2023-04-30T07:47:20.553Z,20.90
2023-04-30T07:52:36.348Z,21.50
2023-04-30T07:57:52.276Z,21.20
2023-04-30T08:03:08.753Z,21.00
2023-04-30T08:08:24.347Z,20.90
2023-04-30T08:13:40.193Z,21.50
2023-04-30T08:18:56.303Z,21.90
2023-04-30T08:24:12.225Z,21.70
2023-04-30T08:29:29.559Z,20.50
2023-04-30T08:34:45.518Z,20.90
2023-04-30T08:40:01.398Z,22.90
2023-04-30T08:45:18.047Z,23.20
2023-04-30T08:50:35.145Z,25.00
2023-04-30T08:55:50.593Z,23.10
2023-04-30T09:01:09.131Z,22.80
2023-04-30T09:06:25.043Z,21.90
2023-04-30T09:11:40.830Z,22.60
2023-04-30T09:16:56.494Z,23.00
2023-04-30T09:22:24.841Z,22.30
2023-04-30T09:27:40.403Z,22.80
2023-04-30T09:32:57.013Z,22.10
2023-04-30T09:38:32.973Z,22.70
2023-04-30T09:43:48.558Z,21.70
2023-04-30T09:49:05.983Z,22.20
2023-04-30T09:54:29.804Z,24.00
2023-04-30T09:59:47.095Z,23.20
2023-04-30T10:05:03.440Z,20.50
2023-04-30T10:10:20.652Z,20.40
2023-04-30T10:15:40.283Z,21.50
2023-04-30T10:20:59.508Z,21.10
2023-04-30T10:26:17.199Z,21.20
2023-04-30T10:31:33.725Z,22.00
2023-04-30T10:36:59.712Z,22.20
2023-04-30T10:42:15.431Z,21.80
2023-04-30T10:47:31.490Z,21.90
2023-04-30T10:52:47.145Z,20.70
2023-04-30T10:58:22.651Z,21.40
2023-04-30T11:03:42.512Z,20.70
2023-04-30T11:09:04.476Z,20.70
2023-04-30T11:14:23.281Z,20.30
2023-04-30T11:20:01.232Z,20.30
2023-04-30T11:25:20.450Z,20.70
2023-04-30T11:30:37.248Z,20.00
2023-04-30T11:35:54.077Z,20.10
2023-04-30T11:41:13.094Z,19.60
2023-04-30T11:46:29.776Z,19.60
2023-04-30T11:51:50.356Z,19.40
2023-04-30T11:57:06.633Z,19.90
2023-04-30T12:02:23.397Z,20.10
2023-04-30T12:07:39.997Z,19.70
2023-04-30T12:12:55.543Z,20.10
2023-04-30T12:18:14.076Z,20.10
2023-04-30T12:23:30.539Z,20.20
2023-04-30T12:28:50.020Z,20.60
2023-04-30T12:34:10.725Z,20.10
2023-04-30T12:39:33.281Z,19.90
2023-04-30T12:44:49.260Z,20.40
2023-04-30T12:50:07.486Z,20.00
2023-04-30T12:55:23.249Z,20.40
2023-04-30T13:00:51.822Z,20.20
2023-04-30T13:06:08.109Z,20.80
2023-04-30T13:11:25.101Z,20.90
2023-04-30T13:16:41.198Z,20.00
2023-04-30T13:21:59.297Z,19.50
2023-04-30T13:27:15.255Z,19.20
2023-04-30T13:32:31.121Z,19.30
2023-04-30T13:37:49.333Z,19.20
2023-04-30T13:43:04.994Z,18.90
2023-04-30T13:48:21.005Z,18.70
2023-04-30T13:53:37.643Z,18.50
2023-04-30T13:58:53.430Z,18.50
2023-04-30T14:04:09.326Z,18.90
2023-04-30T14:09:25.711Z,19.00
2023-04-30T14:14:42.168Z,18.90
2023-04-30T14:19:58.363Z,19.40
2023-04-30T14:25:14.335Z,19.20
2023-04-30T14:30:30.383Z,19.30
2023-04-30T14:35:47.657Z,19.10
2023-04-30T14:41:03.531Z,19.20
2023-04-30T14:46:20.148Z,18.90
2023-04-30T14:51:36.232Z,18.90
2023-04-30T14:56:52.774Z,18.90
2023-04-30T15:02:09.520Z,18.80
2023-04-30T15:07:25.426Z,18.90
2023-04-30T15:12:42.739Z,18.50
2023-04-30T15:17:59.174Z,18.10
2023-04-30T15:23:14.929Z,17.80
2023-04-30T15:28:36.117Z,17.70
2023-04-30T15:33:52.011Z,17.80
2023-04-30T15:39:07.752Z,17.80
2023-04-30T15:44:23.946Z,17.70
2023-04-30T15:49:39.656Z,17.60
2023-04-30T15:54:55.652Z,17.80
2023-04-30T16:00:14.642Z,17.70
2023-04-30T16:05:30.197Z,17.70
2023-04-30T16:10:47.278Z,18.00
2023-04-30T16:16:05.696Z,18.00
2023-04-30T16:21:21.561Z,17.90
2023-04-30T16:26:37.474Z,17.90
2023-04-30T16:31:54.425Z,17.80
2023-04-30T16:37:10.124Z,17.70
2023-04-30T16:42:28.069Z,17.50
2023-04-30T16:47:44.068Z,17.50
2023-04-30T16:53:00.015Z,17.50
2023-04-30T16:58:16.236Z,17.20
2023-04-30T17:03:34.901Z,17.10
2023-04-30T17:08:51.558Z,17.00
2023-04-30T17:14:07.536Z,16.90
2023-04-30T17:19:23.457Z,16.80
2023-04-30T17:24:39.557Z,16.80
2023-04-30T17:29:56.200Z,16.80
2023-04-30T17:35:12.432Z,16.70
2023-04-30T17:40:28.373Z,16.80
2023-04-30T17:45:44.627Z,16.70
2023-04-30T17:51:01.022Z,16.60
2023-04-30T17:56:16.503Z,16.40
2023-04-30T18:01:32.382Z,16.10
2023-04-30T18:06:48.679Z,16.00
2023-04-30T18:12:04.711Z,15.80
2023-04-30T18:17:20.532Z,15.80
2023-04-30T18:22:43.459Z,15.70
2023-04-30T18:27:59.954Z,15.50
2023-04-30T18:33:16.101Z,15.40
2023-04-30T18:38:32.606Z,15.30
2023-04-30T18:43:48.937Z,15.10
2023-04-30T18:49:05.644Z,15.00
2023-04-30T18:54:22.732Z,14.80
2023-04-30T18:59:40.002Z,14.70
2023-04-30T19:04:55.835Z,14.60
2023-04-30T19:10:11.859Z,14.60
2023-04-30T19:15:29.885Z,14.40
2023-04-30T19:21:00.483Z,14.60
2023-04-30T19:26:16.374Z,14.50
2023-04-30T19:31:35.696Z,14.40
2023-04-30T19:36:51.958Z,14.30
2023-04-30T19:42:11.516Z,14.30
2023-04-30T19:47:27.407Z,14.30
2023-04-30T19:52:43.349Z,14.30
2023-04-30T19:57:59.302Z,14.30
2023-04-30T20:03:17.186Z,14.30
2023-04-30T20:08:32.965Z,14.30
2023-04-30T20:13:49.067Z,14.30
2023-04-30T20:19:05.107Z,14.40
2023-04-30T20:24:22.115Z,14.40
2023-04-30T20:29:40.472Z,14.40
2023-04-30T20:34:56.110Z,14.40
2023-04-30T20:40:12.326Z,14.40
2023-04-30T20:45:28.593Z,14.40
2023-04-30T20:50:45.053Z,14.40
2023-04-30T20:56:01.589Z,14.40
2023-04-30T21:01:17.341Z,14.40
2023-04-30T21:06:33.695Z,14.40
2023-04-30T21:11:50.172Z,14.30
2023-04-30T21:17:07.516Z,14.20
2023-04-30T21:22:24.233Z,14.20
2023-04-30T21:27:40.099Z,14.10
2023-04-30T21:32:58.818Z,14.10
2023-04-30T21:38:15.119Z,14.00
2023-04-30T21:43:31.332Z,13.90
2023-04-30T21:48:48.473Z,13.80
2023-04-30T21:54:04.461Z,13.80
2023-04-30T21:59:20.146Z,13.70
2023-04-30T22:04:36.024Z,13.70
2023-04-30T22:09:52.779Z,13.70
2023-04-30T22:15:09.286Z,13.60
2023-04-30T22:20:24.807Z,13.60
2023-04-30T22:25:40.598Z,13.60
2023-04-30T22:31:02.663Z,13.50
2023-04-30T22:36:18.737Z,13.50
2023-04-30T22:41:34.995Z,13.40
2023-04-30T22:46:51.360Z,13.30
2023-04-30T22:52:07.596Z,13.30
2023-04-30T22:57:23.063Z,13.30
2023-04-30T23:02:38.683Z,13.30
2023-04-30T23:07:54.599Z,13.20
2023-04-30T23:13:10.765Z,13.10
2023-04-30T23:18:27.243Z,13.10
2023-04-30T23:23:42.881Z,13.10
2023-04-30T23:28:58.898Z,13.10
2023-04-30T23:34:15.059Z,13.10
2023-04-30T23:39:31.052Z,13.00
2023-04-30T23:44:46.899Z,12.90
2023-04-30T23:50:04.244Z,12.90
2023-04-30T23:55:20.864Z,12.90
